createdAt,value
2022-09-22T00:00:24.601Z,63.67
2022-09-22T00:01:24.640Z,63.56
2022-09-22T00:02:24.647Z,63.76
2022-09-22T00:03:25.430Z,63.36
2022-09-22T00:04:24.621Z,63.23
2022-09-22T00:05:24.622Z,63.26
2022-09-22T00:06:24.621Z,63.46
2022-09-22T00:07:24.634Z,63.16
2022-09-22T00:08:24.629Z,63.26
2022-09-22T00:09:24.627Z,62.96
2022-09-22T00:10:24.620Z,63.16
2022-09-22T00:11:24.642Z,63.16
2022-09-22T00:12:24.630Z,63.26
2022-09-22T00:13:24.640Z,63.26
2022-09-22T00:14:24.649Z,63.09
2022-09-22T00:15:24.637Z,62.85
2022-09-22T00:16:24.690Z,62.65
2022-09-22T00:17:24.627Z,62.85
2022-09-22T00:18:24.656Z,62.85
2022-09-22T00:19:24.620Z,62.85
2022-09-22T00:20:24.636Z,62.96
2022-09-22T00:21:24.666Z,62.85
2022-09-22T00:22:24.648Z,62.85
2022-09-22T00:23:24.639Z,63.06
2022-09-22T00:24:24.646Z,62.83
2022-09-22T00:25:24.645Z,62.85
2022-09-22T00:26:24.634Z,63.06
2022-09-22T00:27:24.645Z,62.85
2022-09-22T00:28:24.666Z,63.16
2022-09-22T00:29:24.635Z,62.76
2022-09-22T00:30:24.634Z,62.65
2022-09-22T00:31:24.706Z,63.16
2022-09-22T00:32:24.654Z,63.16
2022-09-22T00:33:25.032Z,63.06
2022-09-22T00:34:24.643Z,62.85
2022-09-22T00:35:24.644Z,63.06
2022-09-22T00:36:24.643Z,62.85
2022-09-22T00:37:24.662Z,62.88
2022-09-22T00:38:24.853Z,62.85
2022-09-22T00:39:24.681Z,63.06
2022-09-22T00:40:24.686Z,63.09
2022-09-22T00:41:24.652Z,63.26
2022-09-22T00:42:24.663Z,63.39
2022-09-22T00:43:24.990Z,63.49
2022-09-22T00:44:24.661Z,63.06
2022-09-22T00:45:24.673Z,63.19
2022-09-22T00:46:24.721Z,63.39
2022-09-22T00:47:24.710Z,63.39
2022-09-22T00:48:25.430Z,62.85
2022-09-22T00:49:24.712Z,62.28
2022-09-22T00:50:24.795Z,61.95
2022-09-22T00:51:24.690Z,62.15
2022-09-22T00:52:24.720Z,62.08
2022-09-22T00:53:24.708Z,61.98
2022-09-22T00:54:24.716Z,62.08
2022-09-22T00:55:24.709Z,62.28
2022-09-22T00:56:24.727Z,62.45
2022-09-22T00:57:24.728Z,62.45
2022-09-22T00:58:24.728Z,62.28
2022-09-22T00:59:24.737Z,62.35
2022-09-22T01:00:24.809Z,62.35
2022-09-22T01:01:24.767Z,62.59
2022-09-22T01:02:24.759Z,62.48
2022-09-22T01:03:29.075Z,62.65
2022-09-22T01:04:25.749Z,62.59
2022-09-22T01:05:24.773Z,62.55
2022-09-22T01:06:24.763Z,62.79
2022-09-22T01:07:24.787Z,62.68
2022-09-22T01:08:24.765Z,62.59
2022-09-22T01:09:24.785Z,62.59
2022-09-22T01:10:24.785Z,62.55
2022-09-22T01:11:24.824Z,62.55
2022-09-22T01:12:24.804Z,62.15
2022-09-22T01:13:24.815Z,61.95
2022-09-22T01:14:24.819Z,62.15
2022-09-22T01:15:24.816Z,62.18
2022-09-22T01:16:24.905Z,62.18
2022-09-22T01:17:24.834Z,62.15
2022-09-22T01:18:24.826Z,62.38
2022-09-22T01:19:24.830Z,62.15
2022-09-22T01:20:24.832Z,61.95
2022-09-22T01:21:24.843Z,62.05
2022-09-22T01:22:24.862Z,61.98
2022-09-22T01:23:24.861Z,62.08
2022-09-22T01:24:24.861Z,61.98
2022-09-22T01:25:24.861Z,62.05
2022-09-22T01:26:24.861Z,61.98
2022-09-22T01:27:24.879Z,62.08
2022-09-22T01:28:24.880Z,62.08
2022-09-22T01:29:24.870Z,61.88
2022-09-22T01:30:24.891Z,61.77
2022-09-22T01:31:24.921Z,61.55
2022-09-22T01:32:24.909Z,61.35
2022-09-22T01:33:25.049Z,61.47
2022-09-22T01:34:24.900Z,61.44
2022-09-22T01:35:24.888Z,61.14
2022-09-22T01:36:24.888Z,61.24
2022-09-22T01:37:24.899Z,61.35
2022-09-22T01:38:25.269Z,61.27
2022-09-22T01:39:24.890Z,61.24
2022-09-22T01:40:24.916Z,61.47
2022-09-22T01:41:24.897Z,61.57
2022-09-22T01:42:24.916Z,61.65
2022-09-22T01:43:25.419Z,61.88
2022-09-22T01:44:24.906Z,61.88
2022-09-22T01:45:24.915Z,62.08
2022-09-22T01:46:24.957Z,61.85
2022-09-22T01:47:24.926Z,61.68
2022-09-22T01:48:25.595Z,61.98
2022-09-22T01:49:24.935Z,61.77
2022-09-22T01:50:24.933Z,61.88
2022-09-22T01:51:24.942Z,61.98
2022-09-22T01:52:24.944Z,61.98
2022-09-22T01:53:24.943Z,62.11
2022-09-22T01:54:24.948Z,61.98
2022-09-22T01:55:24.945Z,61.98
2022-09-22T01:56:24.944Z,62.08
2022-09-22T01:57:24.991Z,62.05
2022-09-22T01:58:25.515Z,61.98
2022-09-22T01:59:24.957Z,61.88
2022-09-22T02:00:24.962Z,62.08
2022-09-22T02:01:25.030Z,62.15
2022-09-22T02:02:25.129Z,61.68
2022-09-22T02:03:24.962Z,61.68
2022-09-22T02:04:24.964Z,61.68
2022-09-22T02:05:24.961Z,61.68
2022-09-22T02:06:24.970Z,61.77
2022-09-22T02:07:24.978Z,61.57
2022-09-22T02:08:25.077Z,61.57
2022-09-22T02:09:24.979Z,61.44
2022-09-22T02:10:24.983Z,61.57
2022-09-22T02:11:24.999Z,61.17
2022-09-22T02:12:25.018Z,60.94
2022-09-22T02:13:24.989Z,61.20
2022-09-22T02:14:24.982Z,60.97
2022-09-22T02:15:24.989Z,61.04
2022-09-22T02:16:24.989Z,61.17
2022-09-22T02:17:24.999Z,61.27
2022-09-22T02:18:25.038Z,61.47
2022-09-22T02:19:25.035Z,61.27
2022-09-22T02:20:25.066Z,61.40
2022-09-22T02:21:25.017Z,61.57
2022-09-22T02:22:25.027Z,61.27
2022-09-22T02:23:25.098Z,61.27
2022-09-22T02:24:25.036Z,61.14
2022-09-22T02:25:25.081Z,61.07
2022-09-22T02:26:25.055Z,60.57
2022-09-22T02:27:25.065Z,60.64
2022-09-22T02:28:25.066Z,60.89
2022-09-22T02:29:25.036Z,60.77
2022-09-22T02:30:25.035Z,61.00
2022-09-22T02:31:25.140Z,61.07
2022-09-22T02:32:25.034Z,61.17
2022-09-22T02:33:25.086Z,61.27
2022-09-22T02:34:25.066Z,61.27
2022-09-22T02:35:25.053Z,61.37
2022-09-22T02:36:25.083Z,61.57
2022-09-22T02:37:25.073Z,61.40
2022-09-22T02:38:25.122Z,61.27
2022-09-22T02:39:25.092Z,61.20
2022-09-22T02:40:25.206Z,61.27
2022-09-22T02:41:25.114Z,61.37
2022-09-22T02:42:25.111Z,61.27
2022-09-22T02:43:25.419Z,61.17
2022-09-22T02:44:25.132Z,61.37
2022-09-22T02:45:25.141Z,61.47
2022-09-22T02:46:25.216Z,61.27
2022-09-22T02:47:25.172Z,61.24
2022-09-22T02:48:25.580Z,61.47
2022-09-22T02:49:25.166Z,61.57
2022-09-22T02:50:25.160Z,61.57
2022-09-22T02:51:25.160Z,61.57
2022-09-22T02:52:25.200Z,61.37
2022-09-22T02:53:25.189Z,61.37
2022-09-22T02:54:25.187Z,61.37
2022-09-22T02:55:25.172Z,61.17
2022-09-22T02:56:25.179Z,60.97
2022-09-22T02:57:25.184Z,61.17
2022-09-22T02:58:25.178Z,61.07
2022-09-22T02:59:25.198Z,60.97
2022-09-22T03:00:25.217Z,60.97
2022-09-22T03:01:25.279Z,61.17
2022-09-22T03:02:25.186Z,61.07
2022-09-22T03:03:25.199Z,60.66
2022-09-22T03:04:25.298Z,60.66
2022-09-22T03:05:25.214Z,60.87
2022-09-22T03:06:25.226Z,60.87
2022-09-22T03:07:25.208Z,61.07
2022-09-22T03:08:25.218Z,61.10
2022-09-22T03:09:25.235Z,61.00
2022-09-22T03:10:25.233Z,60.87
2022-09-22T03:11:25.244Z,61.17
2022-09-22T03:12:25.244Z,61.20
2022-09-22T03:13:25.252Z,61.00
2022-09-22T03:14:25.276Z,60.77
2022-09-22T03:15:27.214Z,60.66
2022-09-22T03:16:25.274Z,60.97
2022-09-22T03:17:25.274Z,61.07
2022-09-22T03:18:25.280Z,60.97
2022-09-22T03:19:25.294Z,61.10
2022-09-22T03:20:25.353Z,60.87
2022-09-22T03:21:25.282Z,60.77
2022-09-22T03:22:25.284Z,60.69
2022-09-22T03:23:25.291Z,60.46
2022-09-22T03:24:25.309Z,60.60
2022-09-22T03:25:25.290Z,60.66
2022-09-22T03:26:25.311Z,60.60
2022-09-22T03:27:25.299Z,60.66
2022-09-22T03:28:25.300Z,60.87
2022-09-22T03:29:25.300Z,60.77
2022-09-22T03:30:25.290Z,60.80
2022-09-22T03:31:25.378Z,60.80
2022-09-22T03:32:25.309Z,60.77
2022-09-22T03:33:25.317Z,61.17
2022-09-22T03:34:25.299Z,61.17
2022-09-22T03:35:25.298Z,60.57
2022-09-22T03:36:25.300Z,60.36
2022-09-22T03:37:25.298Z,60.49
2022-09-22T03:38:25.308Z,60.77
2022-09-22T03:39:25.325Z,60.80
2022-09-22T03:40:25.359Z,60.89
2022-09-22T03:41:25.335Z,60.36
2022-09-22T03:42:25.347Z,59.86
2022-09-22T03:43:25.346Z,59.89
2022-09-22T03:44:25.347Z,60.26
2022-09-22T03:45:25.346Z,60.46
2022-09-22T03:46:25.389Z,60.77
2022-09-22T03:47:25.356Z,60.36
2022-09-22T03:48:25.564Z,60.60
2022-09-22T03:49:25.375Z,60.77
2022-09-22T03:50:25.364Z,60.87
2022-09-22T03:51:25.363Z,61.20
2022-09-22T03:52:25.374Z,61.17
2022-09-22T03:53:25.401Z,61.00
2022-09-22T03:54:25.389Z,60.89
2022-09-22T03:55:25.364Z,61.00
2022-09-22T03:56:25.364Z,60.80
2022-09-22T03:57:25.377Z,60.69
2022-09-22T03:58:25.373Z,61.00
2022-09-22T03:59:25.405Z,60.89
2022-09-22T04:00:25.454Z,60.80
2022-09-22T04:01:25.471Z,60.69
2022-09-22T04:02:25.420Z,60.57
2022-09-22T04:03:25.382Z,60.26
2022-09-22T04:04:25.385Z,60.66
2022-09-22T04:05:25.371Z,60.69
2022-09-22T04:06:25.381Z,60.66
2022-09-22T04:07:25.391Z,60.72
2022-09-22T04:08:25.391Z,60.77
2022-09-22T04:09:25.413Z,61.00
2022-09-22T04:10:25.400Z,60.97
2022-09-22T04:11:25.406Z,61.00
2022-09-22T04:12:25.433Z,59.96
2022-09-22T04:13:25.419Z,59.48
2022-09-22T04:14:25.443Z,59.89
2022-09-22T04:15:25.434Z,60.16
2022-09-22T04:16:25.445Z,60.29
2022-09-22T04:17:25.452Z,60.39
2022-09-22T04:18:25.449Z,60.39
2022-09-22T04:19:25.438Z,60.29
2022-09-22T04:20:25.427Z,60.19
2022-09-22T04:21:25.428Z,60.09
2022-09-22T04:22:25.427Z,60.09
2022-09-22T04:23:25.435Z,59.89
2022-09-22T04:24:25.456Z,60.16
2022-09-22T04:25:25.444Z,60.26
2022-09-22T04:26:25.446Z,60.29
2022-09-22T04:27:25.440Z,60.39
2022-09-22T04:28:25.431Z,60.36
2022-09-22T04:29:25.446Z,60.60
2022-09-22T04:30:25.490Z,60.69
2022-09-22T04:31:25.453Z,60.49
2022-09-22T04:32:25.455Z,60.46
2022-09-22T04:33:25.473Z,60.49
2022-09-22T04:34:25.492Z,60.29
2022-09-22T04:35:25.480Z,60.36
2022-09-22T04:36:25.503Z,59.96
2022-09-22T04:37:25.492Z,60.19
2022-09-22T04:38:25.503Z,60.49
2022-09-22T04:39:25.524Z,60.46
2022-09-22T04:40:25.606Z,60.60
2022-09-22T04:41:25.521Z,60.39
2022-09-22T04:42:25.531Z,60.19
2022-09-22T04:43:25.531Z,60.29
2022-09-22T04:44:25.540Z,60.29
2022-09-22T04:45:25.532Z,60.29
2022-09-22T04:46:25.562Z,60.19
2022-09-22T04:47:25.528Z,60.09
2022-09-22T04:48:25.530Z,60.32
2022-09-22T04:49:25.543Z,60.19
2022-09-22T04:50:25.541Z,60.29
2022-09-22T04:51:25.557Z,60.39
2022-09-22T04:52:25.539Z,60.39
2022-09-22T04:53:25.549Z,60.39
2022-09-22T04:54:25.569Z,60.39
2022-09-22T04:55:25.550Z,60.29
2022-09-22T04:56:25.557Z,60.39
2022-09-22T04:57:25.565Z,60.49
2022-09-22T04:58:25.939Z,60.36
2022-09-22T04:59:25.567Z,60.46
2022-09-22T05:00:25.587Z,60.29
2022-09-22T05:01:25.600Z,60.19
2022-09-22T05:02:25.586Z,60.09
2022-09-22T05:03:26.105Z,59.78
2022-09-22T05:04:25.641Z,59.78
2022-09-22T05:05:25.616Z,59.58
2022-09-22T05:06:25.607Z,59.66
2022-09-22T05:07:25.625Z,59.58
2022-09-22T05:08:25.643Z,59.99
2022-09-22T05:09:25.645Z,60.09
2022-09-22T05:10:25.676Z,60.19
2022-09-22T05:11:25.644Z,60.39
2022-09-22T05:12:25.654Z,60.19
2022-09-22T05:13:25.667Z,59.99
2022-09-22T05:14:26.498Z,59.96
2022-09-22T05:15:25.692Z,60.19
2022-09-22T05:16:25.726Z,60.26
2022-09-22T05:17:25.702Z,60.19
2022-09-22T05:18:25.704Z,59.89
2022-09-22T05:19:25.712Z,60.09
2022-09-22T05:20:25.724Z,59.99
2022-09-22T05:21:25.710Z,59.89
2022-09-22T05:22:25.732Z,59.69
2022-09-22T05:23:25.731Z,59.89
2022-09-22T05:24:25.744Z,59.78
2022-09-22T05:25:25.741Z,59.78
2022-09-22T05:26:25.732Z,60.06
2022-09-22T05:27:25.739Z,60.12
2022-09-22T05:28:25.751Z,60.06
2022-09-22T05:29:27.921Z,60.09
2022-09-22T05:30:25.781Z,59.78
2022-09-22T05:31:25.800Z,59.78
2022-09-22T05:32:25.779Z,59.89
2022-09-22T05:33:25.789Z,59.89
2022-09-22T05:34:25.788Z,59.78
2022-09-22T05:35:25.816Z,59.78
2022-09-22T05:36:25.798Z,60.12
2022-09-22T05:37:25.789Z,60.19
2022-09-22T05:38:25.788Z,59.99
2022-09-22T05:39:25.796Z,59.99
2022-09-22T05:40:25.843Z,60.26
2022-09-22T05:41:25.796Z,60.19
2022-09-22T05:42:25.802Z,60.09
2022-09-22T05:43:25.807Z,60.29
2022-09-22T05:44:25.816Z,60.09
2022-09-22T05:45:25.901Z,60.19
2022-09-22T05:46:25.828Z,60.29
2022-09-22T05:47:25.817Z,60.19
2022-09-22T05:48:30.894Z,60.39
2022-09-22T05:49:26.795Z,60.29
2022-09-22T05:50:25.824Z,60.29
2022-09-22T05:51:25.815Z,60.29
2022-09-22T05:52:25.833Z,59.99
2022-09-22T05:53:26.324Z,59.99
2022-09-22T05:54:25.837Z,59.99
2022-09-22T05:55:25.841Z,59.99
2022-09-22T05:56:25.850Z,60.19
2022-09-22T05:57:25.875Z,60.19
2022-09-22T05:58:25.863Z,59.99
2022-09-22T05:59:25.873Z,59.76
2022-09-22T06:00:25.883Z,59.99
2022-09-22T06:01:25.917Z,60.09
2022-09-22T06:02:26.664Z,60.09
2022-09-22T06:03:25.898Z,60.19
2022-09-22T06:04:25.902Z,60.29
2022-09-22T06:05:25.915Z,60.39
2022-09-22T06:06:25.912Z,60.19
2022-09-22T06:07:25.911Z,60.39
2022-09-22T06:08:25.921Z,60.72
2022-09-22T06:09:25.909Z,60.60
2022-09-22T06:10:25.933Z,60.39
2022-09-22T06:11:25.920Z,60.42
2022-09-22T06:12:25.928Z,60.39
2022-09-22T06:13:25.930Z,60.29
2022-09-22T06:14:25.939Z,60.22
2022-09-22T06:15:25.948Z,60.49
2022-09-22T06:16:25.981Z,60.69
2022-09-22T06:17:25.968Z,60.60
2022-09-22T06:18:25.959Z,60.89
2022-09-22T06:19:25.957Z,60.82
2022-09-22T06:20:26.060Z,60.72
2022-09-22T06:21:25.968Z,60.29
2022-09-22T06:22:25.966Z,60.80
2022-09-22T06:23:25.988Z,61.10
2022-09-22T06:24:25.988Z,60.89
2022-09-22T06:25:25.996Z,59.78
2022-09-22T06:26:26.006Z,59.28
2022-09-22T06:27:26.005Z,60.29
2022-09-22T06:28:26.044Z,60.89
2022-09-22T06:29:26.023Z,61.20
2022-09-22T06:30:26.100Z,61.00
2022-09-22T06:31:26.165Z,61.40
2022-09-22T06:32:26.058Z,61.10
2022-09-22T06:33:26.083Z,60.39
2022-09-22T06:34:26.074Z,60.89
2022-09-22T06:35:26.091Z,61.40
2022-09-22T06:36:26.093Z,61.40
2022-09-22T06:37:26.093Z,61.20
2022-09-22T06:38:26.102Z,61.60
2022-09-22T06:39:26.113Z,61.80
2022-09-22T06:40:26.284Z,61.20
2022-09-22T06:41:26.132Z,60.60
2022-09-22T06:42:26.142Z,61.37
2022-09-22T06:43:26.157Z,61.71
2022-09-22T06:44:26.153Z,61.60
2022-09-22T06:45:26.240Z,61.60
2022-09-22T06:46:26.170Z,61.51
2022-09-22T06:47:26.180Z,61.27
2022-09-22T06:48:26.224Z,61.17
2022-09-22T06:49:26.215Z,60.69
2022-09-22T06:50:28.939Z,59.48
2022-09-22T06:51:26.210Z,58.60
2022-09-22T06:52:26.250Z,58.27
2022-09-22T06:53:27.619Z,58.58
2022-09-22T06:54:26.227Z,59.28
2022-09-22T06:55:26.229Z,61.10
2022-09-22T06:56:26.237Z,61.37
2022-09-22T06:57:26.238Z,61.60
2022-09-22T06:58:26.250Z,62.01
2022-09-22T06:59:26.268Z,62.08
2022-09-22T07:00:26.287Z,62.41
2022-09-22T07:01:26.366Z,62.51
2022-09-22T07:02:26.305Z,62.62
2022-09-22T07:03:26.381Z,62.11
2022-09-22T07:04:26.276Z,62.31
2022-09-22T07:05:26.295Z,62.18
2022-09-22T07:06:26.296Z,62.38
2022-09-22T07:07:26.283Z,62.62
2022-09-22T07:08:26.285Z,62.71
2022-09-22T07:09:26.284Z,62.62
2022-09-22T07:10:26.284Z,62.68
2022-09-22T07:11:26.294Z,62.62
2022-09-22T07:12:26.454Z,62.41
2022-09-22T07:13:26.286Z,62.28
2022-09-22T07:14:26.274Z,62.51
2022-09-22T07:15:26.264Z,62.41
2022-09-22T07:16:26.333Z,62.21
2022-09-22T07:17:26.271Z,62.21
2022-09-22T07:18:26.273Z,62.21
2022-09-22T07:19:26.283Z,62.18
2022-09-22T07:20:26.283Z,62.38
2022-09-22T07:21:26.282Z,62.41
2022-09-22T07:22:26.272Z,62.01
2022-09-22T07:23:26.282Z,62.51
2022-09-22T07:24:26.281Z,62.62
2022-09-22T07:25:26.281Z,62.71
2022-09-22T07:26:26.301Z,62.79
2022-09-22T07:27:26.292Z,62.99
2022-09-22T07:28:26.300Z,63.19
2022-09-22T07:29:26.300Z,63.39
2022-09-22T07:30:26.315Z,63.32
2022-09-22T07:31:28.807Z,63.42
2022-09-22T07:32:26.308Z,63.39
2022-09-22T07:33:26.349Z,63.39
2022-09-22T07:34:26.309Z,63.45
2022-09-22T07:35:26.310Z,63.42
2022-09-22T07:36:26.316Z,63.39
2022-09-22T07:37:26.328Z,63.29
2022-09-22T07:38:26.338Z,63.49
2022-09-22T07:39:26.305Z,63.62
2022-09-22T07:40:26.320Z,63.73
2022-09-22T07:41:26.298Z,63.93
2022-09-22T07:42:26.297Z,64.00
2022-09-22T07:43:26.317Z,64.10
2022-09-22T07:44:26.316Z,63.93
2022-09-22T07:45:26.317Z,64.03
2022-09-22T07:46:26.355Z,64.10
2022-09-22T07:47:26.335Z,64.40
2022-09-22T07:48:26.356Z,64.23
2022-09-22T07:49:26.325Z,64.33
2022-09-22T07:50:26.335Z,64.30
2022-09-22T07:51:26.353Z,64.30
2022-09-22T07:52:26.346Z,64.20
2022-09-22T07:53:26.365Z,64.00
2022-09-22T07:54:26.364Z,63.90
2022-09-22T07:55:26.547Z,64.10
2022-09-22T07:56:26.364Z,64.40
2022-09-22T07:57:26.343Z,64.50
2022-09-22T07:58:26.362Z,64.40
2022-09-22T07:59:26.353Z,64.50
2022-09-22T08:00:26.430Z,64.03
2022-09-22T08:01:26.353Z,64.81
2022-09-22T08:02:26.404Z,64.70
2022-09-22T08:03:26.342Z,64.70
2022-09-22T08:04:26.384Z,64.70
2022-09-22T08:05:26.333Z,64.61
2022-09-22T08:06:26.341Z,64.50
2022-09-22T08:07:26.322Z,65.11
2022-09-22T08:08:26.324Z,64.70
2022-09-22T08:09:26.329Z,64.81
2022-09-22T08:10:26.323Z,64.84
2022-09-22T08:11:26.312Z,64.70
2022-09-22T08:12:26.313Z,64.64
2022-09-22T08:13:26.299Z,64.81
2022-09-22T08:14:26.360Z,64.94
2022-09-22T08:15:27.548Z,64.90
2022-09-22T08:16:26.323Z,65.01
2022-09-22T08:17:26.298Z,65.21
2022-09-22T08:18:26.288Z,65.21
2022-09-22T08:19:26.307Z,64.90
2022-09-22T08:20:26.296Z,64.61
2022-09-22T08:21:26.297Z,64.81
2022-09-22T08:22:26.294Z,64.30
2022-09-22T08:23:26.296Z,64.10
2022-09-22T08:24:26.286Z,64.90
2022-09-22T08:25:26.286Z,65.31
2022-09-22T08:26:26.286Z,65.31
2022-09-22T08:27:26.285Z,65.01
2022-09-22T08:28:26.285Z,64.40
2022-09-22T08:29:26.294Z,64.47
2022-09-22T08:30:26.294Z,65.11
2022-09-22T08:31:26.364Z,65.18
2022-09-22T08:32:26.304Z,64.58
2022-09-22T08:33:26.305Z,65.11
2022-09-22T08:34:26.284Z,65.01
2022-09-22T08:35:26.294Z,65.31
2022-09-22T08:36:26.295Z,65.51
2022-09-22T08:37:26.303Z,64.90
2022-09-22T08:38:26.297Z,65.28
2022-09-22T08:39:26.282Z,65.41
2022-09-22T08:40:26.313Z,65.61
2022-09-22T08:41:26.272Z,65.61
2022-09-22T08:42:26.282Z,65.61
2022-09-22T08:43:26.275Z,65.61
2022-09-22T08:44:26.264Z,65.78
2022-09-22T08:45:27.156Z,65.51
2022-09-22T08:46:26.360Z,65.71
2022-09-22T08:47:26.261Z,63.90
2022-09-22T08:48:26.261Z,63.67
2022-09-22T08:49:26.250Z,64.67
2022-09-22T08:50:26.249Z,64.98
2022-09-22T08:51:26.257Z,64.47
2022-09-22T08:52:26.270Z,65.18
2022-09-22T08:53:26.229Z,65.08
2022-09-22T08:54:26.237Z,63.76
2022-09-22T08:55:26.221Z,63.96
2022-09-22T08:56:26.221Z,63.87
2022-09-22T08:57:26.208Z,64.10
2022-09-22T08:58:26.209Z,63.70
2022-09-22T08:59:26.231Z,63.49
2022-09-22T09:00:26.254Z,63.79
2022-09-22T09:01:26.262Z,64.07
2022-09-22T09:02:26.252Z,64.64
2022-09-22T09:03:26.195Z,63.59
2022-09-22T09:04:26.186Z,62.65
2022-09-22T09:05:26.178Z,63.16
2022-09-22T09:06:26.166Z,64.07
2022-09-22T09:07:26.165Z,64.81
2022-09-22T09:08:26.146Z,65.01
2022-09-22T09:09:26.146Z,63.96
2022-09-22T09:10:26.163Z,64.98
2022-09-22T09:11:26.122Z,65.08
2022-09-22T09:12:26.105Z,65.08
2022-09-22T09:13:26.165Z,65.01
2022-09-22T09:14:26.074Z,65.08
2022-09-22T09:15:26.082Z,65.08
2022-09-22T09:16:26.044Z,65.28
2022-09-22T09:17:26.083Z,65.68
2022-09-22T09:18:26.053Z,65.78
2022-09-22T09:19:26.041Z,65.78
2022-09-22T09:20:26.021Z,66.19
2022-09-22T09:21:26.002Z,66.29
2022-09-22T09:22:26.003Z,66.08
2022-09-22T09:25:21.857Z,65.99
2022-09-22T09:25:27.969Z,65.99
2022-09-22T09:26:25.951Z,65.28
2022-09-22T09:27:25.950Z,65.68
2022-09-22T09:28:28.016Z,65.08
2022-09-22T09:29:25.900Z,65.18
2022-09-22T09:30:26.054Z,65.05
2022-09-22T09:31:25.911Z,64.47
2022-09-22T09:32:25.901Z,65.08
2022-09-22T09:33:25.839Z,64.87
2022-09-22T09:34:25.829Z,65.28
2022-09-22T09:35:25.834Z,65.21
2022-09-22T09:36:25.812Z,65.58
2022-09-22T09:37:25.810Z,65.68
2022-09-22T09:38:25.778Z,65.75
2022-09-22T09:39:25.820Z,65.68
2022-09-22T09:40:25.806Z,65.58
2022-09-22T09:41:25.777Z,65.68
2022-09-22T09:42:25.777Z,65.65
2022-09-22T09:43:25.709Z,65.35
2022-09-22T09:44:25.714Z,65.28
2022-09-22T09:45:25.686Z,65.18
2022-09-22T09:46:25.734Z,64.98
2022-09-22T09:47:25.683Z,65.08
2022-09-22T09:48:25.680Z,64.87
2022-09-22T09:49:25.665Z,64.98
2022-09-22T09:50:25.639Z,62.85
2022-09-22T09:51:25.670Z,63.26
2022-09-22T09:52:25.614Z,63.56
2022-09-22T09:53:25.605Z,63.84
2022-09-22T09:54:25.584Z,64.07
2022-09-22T09:55:27.246Z,63.26
2022-09-22T09:56:25.584Z,62.63
2022-09-22T09:57:28.528Z,62.85
2022-09-22T09:58:25.550Z,63.53
2022-09-22T09:59:25.524Z,64.04
2022-09-22T10:00:25.520Z,64.24
2022-09-22T10:01:25.523Z,64.67
2022-09-22T10:02:25.492Z,64.78
2022-09-22T10:03:25.534Z,64.87
2022-09-22T10:04:25.467Z,65.08
2022-09-22T10:05:25.451Z,65.05
2022-09-22T10:06:25.451Z,64.84
2022-09-22T10:07:25.452Z,61.04
2022-09-22T10:08:25.420Z,60.91
2022-09-22T10:09:25.390Z,60.94
2022-09-22T10:10:25.370Z,59.63
2022-09-22T10:11:25.378Z,60.24
2022-09-22T10:12:25.363Z,58.22
2022-09-22T10:13:25.350Z,58.52
2022-09-22T10:14:25.350Z,59.33
2022-09-22T10:15:25.318Z,59.22
2022-09-22T10:16:25.298Z,59.60
2022-09-22T10:17:25.297Z,60.71
2022-09-22T10:18:25.318Z,58.59
2022-09-22T10:19:25.248Z,58.09
2022-09-22T10:20:25.238Z,56.17
2022-09-22T10:21:25.219Z,56.27
2022-09-22T10:22:25.207Z,57.01
2022-09-22T10:23:25.181Z,57.61
2022-09-22T10:24:25.168Z,58.09
2022-09-22T10:25:25.146Z,57.81
2022-09-22T10:26:25.127Z,57.91
2022-09-22T10:27:25.117Z,58.39
2022-09-22T10:28:25.094Z,58.69
2022-09-22T10:29:25.106Z,59.22
2022-09-22T10:30:25.075Z,59.50
2022-09-22T10:31:25.173Z,57.89
2022-09-22T10:32:25.054Z,58.19
2022-09-22T10:33:25.024Z,56.77
2022-09-22T10:34:25.007Z,55.87
2022-09-22T10:35:25.005Z,55.39
2022-09-22T10:36:24.992Z,54.68
2022-09-22T10:37:24.985Z,55.29
2022-09-22T10:38:24.969Z,55.16
2022-09-22T10:39:24.961Z,54.56
2022-09-22T10:40:25.062Z,55.29
2022-09-22T10:41:24.946Z,55.57
2022-09-22T10:42:24.922Z,54.66
2022-09-22T10:43:24.932Z,54.76
2022-09-22T10:44:38.668Z,55.57
2022-09-22T10:45:25.910Z,56.40
2022-09-22T10:46:24.945Z,57.18
2022-09-22T10:47:27.124Z,57.38
2022-09-22T10:48:24.873Z,58.49
2022-09-22T10:49:24.878Z,59.50
2022-09-22T10:50:24.920Z,60.57
2022-09-22T10:51:24.877Z,61.14
2022-09-22T10:52:24.821Z,61.41
2022-09-22T10:53:24.827Z,61.95
2022-09-22T10:54:24.796Z,62.05
2022-09-22T10:55:24.779Z,61.35
2022-09-22T10:56:24.769Z,61.32
2022-09-22T10:57:24.740Z,61.92
2022-09-22T10:58:24.717Z,62.65
2022-09-22T10:59:24.707Z,60.84
2022-09-22T11:00:24.767Z,60.41
2022-09-22T11:01:24.747Z,60.64
2022-09-22T11:02:24.667Z,58.89
2022-09-22T11:03:24.657Z,58.82
2022-09-22T11:04:24.649Z,55.66
2022-09-22T11:05:24.619Z,56.60
2022-09-22T11:06:24.606Z,58.19
2022-09-22T11:07:24.566Z,59.42
2022-09-22T11:08:24.557Z,59.30
2022-09-22T11:09:24.534Z,58.80
2022-09-22T11:10:24.521Z,58.59
2022-09-22T11:11:24.515Z,58.22
2022-09-22T11:12:24.493Z,57.89
2022-09-22T11:13:24.485Z,57.68
2022-09-22T11:14:24.474Z,56.37
2022-09-22T11:15:24.531Z,54.79
2022-09-22T11:16:24.443Z,55.66
2022-09-22T11:17:24.432Z,56.37
2022-09-22T11:18:24.415Z,56.88
2022-09-22T11:19:24.390Z,57.38
2022-09-22T11:20:24.439Z,56.27
2022-09-22T11:21:24.374Z,53.47
2022-09-22T11:22:24.342Z,53.25
2022-09-22T11:23:24.331Z,53.14
2022-09-22T11:24:24.399Z,53.88
2022-09-22T11:25:24.308Z,55.46
2022-09-22T11:26:24.290Z,56.50
2022-09-22T11:27:24.296Z,56.88
2022-09-22T11:28:24.271Z,57.10
2022-09-22T11:29:24.250Z,57.08
2022-09-22T11:30:24.240Z,56.48
2022-09-22T11:31:24.230Z,55.77
2022-09-22T11:32:24.230Z,54.08
2022-09-22T11:33:24.220Z,55.09
2022-09-22T11:34:24.200Z,55.99
2022-09-22T11:35:24.191Z,56.98
2022-09-22T11:36:24.189Z,57.91
2022-09-22T11:37:24.186Z,56.50
2022-09-22T11:38:24.142Z,54.36
2022-09-22T11:39:24.128Z,55.16
2022-09-22T11:40:24.155Z,53.14
2022-09-22T11:41:24.087Z,53.96
2022-09-22T11:42:24.087Z,54.56
2022-09-22T11:43:24.056Z,56.27
2022-09-22T11:44:24.035Z,57.08
2022-09-22T11:45:24.007Z,56.98
2022-09-22T11:46:24.003Z,56.40
2022-09-22T11:47:23.985Z,56.17
2022-09-22T11:48:24.052Z,55.26
2022-09-22T11:49:23.945Z,53.58
2022-09-22T11:50:23.945Z,52.76
2022-09-22T11:51:23.934Z,53.05
2022-09-22T11:52:23.933Z,53.58
2022-09-22T11:53:23.914Z,53.96
2022-09-22T11:54:23.902Z,54.66
2022-09-22T11:55:23.911Z,54.89
2022-09-22T11:56:23.871Z,55.99
2022-09-22T11:57:23.863Z,56.30
2022-09-22T11:58:23.823Z,56.77
2022-09-22T11:59:23.812Z,56.77
2022-09-22T12:00:23.791Z,56.60
2022-09-22T12:01:23.772Z,56.07
2022-09-22T12:02:23.834Z,55.97
2022-09-22T12:03:23.821Z,55.26
2022-09-22T12:04:23.701Z,53.14
2022-09-22T12:05:23.709Z,53.47
2022-09-22T12:06:23.678Z,54.46
2022-09-22T12:07:23.671Z,55.09
2022-09-22T12:08:23.651Z,55.06
2022-09-22T12:09:23.634Z,54.96
2022-09-22T12:10:23.621Z,55.16
2022-09-22T12:11:23.609Z,53.55
2022-09-22T12:12:23.588Z,52.24
2022-09-22T12:13:23.587Z,53.05
2022-09-22T12:14:23.568Z,54.05
2022-09-22T12:15:23.561Z,54.25
2022-09-22T12:16:23.548Z,52.16
2022-09-22T12:17:23.841Z,52.84
2022-09-22T12:18:23.506Z,51.23
2022-09-22T12:19:23.497Z,51.33
2022-09-22T12:20:23.477Z,51.73
2022-09-22T12:21:23.457Z,52.84
2022-09-22T12:22:23.436Z,54.76
2022-09-22T12:23:23.426Z,55.36
2022-09-22T12:24:23.417Z,55.77
2022-09-22T12:25:44.677Z,56.37
2022-09-22T12:26:24.396Z,56.77
2022-09-22T12:27:23.380Z,56.30
2022-09-22T12:28:23.366Z,53.55
2022-09-22T12:29:23.345Z,51.43
2022-09-22T12:30:23.362Z,51.93
2022-09-22T12:32:23.294Z,49.82
2022-09-22T12:33:23.294Z,50.02
2022-09-22T12:34:23.274Z,51.15
2022-09-22T12:35:25.273Z,51.73
2022-09-22T12:36:24.245Z,52.67
2022-09-22T12:37:23.234Z,52.94
2022-09-22T12:38:23.220Z,53.75
2022-09-22T12:39:23.193Z,53.96
2022-09-22T12:40:23.203Z,53.65
2022-09-22T12:41:23.182Z,54.16
2022-09-22T12:42:23.161Z,54.18
2022-09-22T12:43:23.331Z,53.75
2022-09-22T12:44:23.121Z,53.85
2022-09-22T12:45:23.105Z,54.25
2022-09-22T12:46:23.134Z,54.16
2022-09-22T12:47:23.082Z,53.65
2022-09-22T12:48:23.378Z,53.65
2022-09-22T12:49:23.040Z,54.18
2022-09-22T12:50:23.027Z,53.38
2022-09-22T12:51:23.019Z,53.45
2022-09-22T12:52:22.999Z,53.65
2022-09-22T12:53:23.459Z,54.05
2022-09-22T12:54:22.969Z,54.73